Time;durP1;ratioP1;P1;durP2;ratioP2;P2;SDS_P1;SDS_P2;PMS_P1;PMS_P2;Temp;Humidity;BMP_temperature;BMP_pressure;BME280_temperature;BME280_humidity;BME280_pressure;Samples;Min_cycle;Max_cycle;Signal;HPM_P1;HPM_P2
2023/05/29 00:02:22;;;;;;;8.07;4.20;;;;;;;;;;6245482;23;20012;-87
2023/05/29 00:04:50;;;;;;;8.63;4.60;;;;;;;;;;6246368;23;20330;-87
2023/05/29 00:07:18;;;;;;;5.85;4.68;;;;;;;;;;6246162;23;20020;-87
2023/05/29 00:09:45;;;;;;;8.43;4.95;;;;;;;;;;6245844;23;20024;-87
2023/05/29 00:12:13;;;;;;;8.25;4.90;;;;;;;;;;6245705;23;20019;-87
2023/05/29 00:14:40;;;;;;;10.30;4.80;;;;;;;;;;6245605;23;20031;-87
2023/05/29 00:17:08;;;;;;;7.28;4.47;;;;;;;;;;6245773;23;20016;-86
2023/05/29 00:19:35;;;;;;;6.43;4.43;;;;;;;;;;6245385;23;20311;-87
2023/05/29 00:22:03;;;;;;;7.03;5.15;;;;;;;;;;6245869;23;20016;-87
2023/05/29 00:24:30;;;;;;;13.85;4.95;;;;;;;;;;6245690;23;20020;-87
2023/05/29 00:26:57;;;;;;;9.48;5.07;;;;;;;;;;6245630;23;20016;-87
2023/05/29 00:29:25;;;;;;;10.32;4.90;;;;;;;;;;6245750;23;20020;-87
2023/05/29 00:31:53;;;;;;;10.88;4.93;;;;;;;;;;6245417;23;20024;-87
2023/05/29 00:34:22;;;;;;;8.00;4.85;;;;;;;;;;6245735;23;20452;-88
2023/05/29 00:36:49;;;;;;;8.85;4.57;;;;;;;;;;6245643;23;20016;-87
2023/05/29 00:39:17;;;;;;;6.63;4.88;;;;;;;;;;6245719;23;20016;-87
2023/05/29 00:41:44;;;;;;;6.38;4.22;;;;;;;;;;6245534;23;20492;-87
2023/05/29 00:44:11;;;;;;;9.20;4.78;;;;;;;;;;6245458;23;20338;-87
2023/05/29 00:46:39;;;;;;;6.43;4.53;;;;;;;;;;6245547;23;20024;-87
2023/05/29 00:49:07;;;;;;;8.95;5.50;;;;;;;;;;6245722;23;20348;-87
2023/05/29 00:51:34;;;;;;;8.02;4.80;;;;;;;;;;6245501;23;20047;-87
2023/05/29 00:54:03;;;;;;;9.57;4.97;;;;;;;;;;6245429;23;20016;-87
2023/05/29 00:56:30;;;;;;;8.80;5.18;;;;;;;;;;6245417;23;20082;-87
2023/05/29 00:58:57;;;;;;;7.68;4.82;;;;;;;;;;6245621;23;20016;-87
2023/05/29 01:01:25;;;;;;;5.10;4.22;;;;;;;;;;6245310;23;20357;-87
2023/05/29 01:03:57;;;;;;;5.03;4.50;;;;;;;;;;6245629;23;20020;-87
2023/05/29 01:06:25;;;;;;;9.48;4.90;;;;;;;;;;6245329;23;20024;-87
2023/05/29 01:08:52;;;;;;;8.00;4.85;;;;;;;;;;6245276;23;20082;-86
2023/05/29 01:11:20;;;;;;;7.95;4.85;;;;;;;;;;6245231;23;20020;-87
2023/05/29 01:13:50;;;;;;;7.30;4.60;;;;;;;;;;6245353;23;20388;-87
2023/05/29 01:16:17;;;;;;;7.10;4.38;;;;;;;;;;6245098;23;20070;-87
2023/05/29 01:18:56;;;;;;;9.32;5.00;;;;;;;;;;6244921;23;20027;-87
2023/05/29 01:21:27;;;;;;;9.63;4.57;;;;;;;;;;6244967;23;20020;-87
2023/05/29 01:24:02;;;;;;;5.93;4.90;;;;;;;;;;6244934;23;20342;-87
2023/05/29 01:26:49;;;;;;;8.02;4.85;;;;;;;;;;6245287;23;20016;-87
2023/05/29 01:29:23;;;;;;;5.50;4.65;;;;;;;;;;6245857;23;20531;-87
2023/05/29 01:31:50;;;;;;;8.43;4.75;;;;;;;;;;6250960;23;20020;-87
2023/05/29 01:34:17;;;;;;;6.75;5.10;;;;;;;;;;6262617;22;20027;-87
2023/05/29 01:36:46;;;;;;;8.43;5.35;;;;;;;;;;6272063;22;20120;-88
2023/05/29 01:39:14;;;;;;;8.95;4.80;;;;;;;;;;6257495;23;20023;-87
2023/05/29 01:41:42;;;;;;;9.18;5.38;;;;;;;;;;6246566;23;20050;-87
2023/05/29 01:44:09;;;;;;;9.25;5.13;;;;;;;;;;6245122;23;20065;-87
2023/05/29 01:46:38;;;;;;;7.57;5.53;;;;;;;;;;6245523;23;20023;-86
2023/05/29 01:49:06;;;;;;;6.15;5.07;;;;;;;;;;6245080;23;20016;-87
2023/05/29 01:51:35;;;;;;;8.65;4.93;;;;;;;;;;6244656;23;20024;-87
2023/05/29 01:54:02;;;;;;;6.70;4.95;;;;;;;;;;6245256;23;20023;-87
2023/05/29 01:56:30;;;;;;;7.47;5.15;;;;;;;;;;6245279;23;20048;-87
2023/05/29 01:58:58;;;;;;;10.13;4.93;;;;;;;;;;6245117;23;20023;-87
2023/05/29 02:01:25;;;;;;;7.15;4.95;;;;;;;;;;6244927;23;20028;-87
2023/05/29 02:03:53;;;;;;;7.93;4.70;;;;;;;;;;6244655;23;20019;-88
2023/05/29 02:06:21;;;;;;;14.30;5.57;;;;;;;;;;6244838;23;20013;-88
2023/05/29 02:08:48;;;;;;;8.23;5.45;;;;;;;;;;6244662;23;20457;-87
2023/05/29 02:11:15;;;;;;;10.55;5.88;;;;;;;;;;6244634;23;20020;-87
2023/05/29 02:13:42;;;;;;;10.60;5.05;;;;;;;;;;6244627;23;20020;-88
2023/05/29 02:16:10;;;;;;;12.13;5.43;;;;;;;;;;6244457;23;20325;-87
2023/05/29 02:18:37;;;;;;;7.47;5.80;;;;;;;;;;6244334;23;20023;-87
2023/05/29 02:21:04;;;;;;;9.85;5.85;;;;;;;;;;6244711;23;20445;-87
2023/05/29 02:23:32;;;;;;;9.57;5.57;;;;;;;;;;6244419;23;20524;-88
2023/05/29 02:25:59;;;;;;;10.25;5.40;;;;;;;;;;6245148;23;20020;-88
2023/05/29 02:28:26;;;;;;;8.43;5.75;;;;;;;;;;6244821;23;20016;-86
2023/05/29 02:30:53;;;;;;;8.18;5.85;;;;;;;;;;6244318;23;20082;-87
2023/05/29 02:33:21;;;;;;;10.40;6.13;;;;;;;;;;6244591;23;20160;-87
2023/05/29 02:35:48;;;;;;;7.38;4.95;;;;;;;;;;6244436;23;20070;-88
2023/05/29 02:38:16;;;;;;;8.10;5.25;;;;;;;;;;6245794;23;20020;-87
2023/05/29 02:40:43;;;;;;;12.32;5.60;;;;;;;;;;6244452;23;20027;-87
2023/05/29 02:43:12;;;;;;;11.25;5.47;;;;;;;;;;6245413;23;20020;-88
2023/05/29 02:45:40;;;;;;;8.85;5.65;;;;;;;;;;6246292;23;20020;-87
2023/05/29 02:48:07;;;;;;;9.13;5.78;;;;;;;;;;6246239;23;20020;-87
2023/05/29 02:50:35;;;;;;;8.32;5.65;;;;;;;;;;6246617;23;20013;-87
2023/05/29 02:53:02;;;;;;;12.40;6.38;;;;;;;;;;6246116;23;20404;-87
2023/05/29 02:55:32;;;;;;;9.73;6.13;;;;;;;;;;6246049;23;20020;-87
2023/05/29 02:58:01;;;;;;;7.95;5.65;;;;;;;;;;6246314;23;20020;-87
2023/05/29 03:00:28;;;;;;;9.60;5.45;;;;;;;;;;6246133;23;20027;-87
2023/05/29 03:02:56;;;;;;;9.50;5.50;;;;;;;;;;6246308;23;20095;-87
2023/05/29 03:05:23;;;;;;;8.02;5.30;;;;;;;;;;6245713;23;20441;-87
2023/05/29 03:07:51;;;;;;;9.82;6.07;;;;;;;;;;6246118;23;20099;-87
2023/05/29 03:10:20;;;;;;;13.15;6.20;;;;;;;;;;6246364;23;20020;-87
2023/05/29 03:12:48;;;;;;;9.18;6.75;;;;;;;;;;6246194;23;20016;-87
2023/05/29 03:15:15;;;;;;;10.35;6.22;;;;;;;;;;6246032;23;20023;-87
2023/05/29 03:17:42;;;;;;;8.82;5.07;;;;;;;;;;6246003;23;20016;-87
2023/05/29 03:20:10;;;;;;;10.50;5.43;;;;;;;;;;6245899;23;20020;-88
2023/05/29 03:22:38;;;;;;;6.60;4.95;;;;;;;;;;6245973;23;20012;-88
2023/05/29 03:25:05;;;;;;;7.22;5.68;;;;;;;;;;6245969;23;20012;-88
2023/05/29 03:27:33;;;;;;;9.60;5.80;;;;;;;;;;6245791;23;20070;-88
2023/05/29 03:30:00;;;;;;;10.48;5.75;;;;;;;;;;6245945;23;20016;-88
2023/05/29 03:32:27;;;;;;;11.38;5.93;;;;;;;;;;6245758;23;20074;-88
2023/05/29 03:34:56;;;;;;;8.15;5.22;;;;;;;;;;6245549;23;20040;-88
2023/05/29 03:37:23;;;;;;;8.05;5.95;;;;;;;;;;6245912;23;20426;-87
2023/05/29 03:39:50;;;;;;;9.52;5.90;;;;;;;;;;6245741;23;20016;-87
2023/05/29 03:42:18;;;;;;;8.68;5.35;;;;;;;;;;6245884;23;20027;-87
2023/05/29 03:44:45;;;;;;;7.60;5.70;;;;;;;;;;6245822;23;20224;-87
2023/05/29 03:47:12;;;;;;;9.60;5.18;;;;;;;;;;6245736;23;20074;-87
2023/05/29 03:49:40;;;;;;;5.80;5.07;;;;;;;;;;6245559;23;20020;-88
2023/05/29 03:52:07;;;;;;;12.07;8.13;;;;;;;;;;6245615;23;20074;-88
2023/05/29 03:54:34;;;;;;;17.75;10.77;;;;;;;;;;6245857;23;20020;-88
2023/05/29 03:57:01;;;;;;;17.20;10.90;;;;;;;;;;6246738;23;20020;-88
2023/05/29 03:59:29;;;;;;;12.45;6.75;;;;;;;;;;6246900;23;20532;-88
2023/05/29 04:01:56;;;;;;;8.52;5.57;;;;;;;;;;6246642;23;20028;-88
2023/05/29 04:04:26;;;;;;;8.68;5.40;;;;;;;;;;6246771;23;20334;-88
2023/05/29 04:06:54;;;;;;;8.93;5.95;;;;;;;;;;6247317;23;20023;-88
2023/05/29 04:09:21;;;;;;;12.82;8.38;;;;;;;;;;6247597;23;20020;-88
2023/05/29 04:11:48;;;;;;;15.70;9.75;;;;;;;;;;6247476;23;20012;-88
2023/05/29 04:14:16;;;;;;;9.70;8.38;;;;;;;;;;6247355;23;20032;-88
2023/05/29 04:16:46;;;;;;;12.27;7.30;;;;;;;;;;6247444;23;20024;-88
2023/05/29 04:19:13;;;;;;;14.38;8.48;;;;;;;;;;6247937;23;20018;-88
2023/05/29 04:21:41;;;;;;;16.60;8.20;;;;;;;;;;6248693;23;20024;-88
2023/05/29 04:24:08;;;;;;;12.50;7.72;;;;;;;;;;6250538;23;20020;-87
2023/05/29 04:26:35;;;;;;;13.07;8.52;;;;;;;;;;6268704;22;20000;-87
2023/05/29 04:29:03;;;;;;;13.02;8.13;;;;;;;;;;6272444;22;20008;-87
2023/05/29 04:31:30;;;;;;;12.05;7.47;;;;;;;;;;6249185;23;20027;-88
2023/05/29 04:34:00;;;;;;;10.70;6.88;;;;;;;;;;6248355;23;20020;-88
2023/05/29 04:36:32;;;;;;;12.20;7.05;;;;;;;;;;6245777;23;20074;-88
2023/05/29 04:38:59;;;;;;;10.88;6.70;;;;;;;;;;6245919;23;20062;-88
2023/05/29 04:41:30;;;;;;;10.18;6.03;;;;;;;;;;6245693;23;20028;-88
2023/05/29 04:43:58;;;;;;;8.93;6.30;;;;;;;;;;6245942;23;20067;-87
2023/05/29 04:46:26;;;;;;;14.95;6.55;;;;;;;;;;6245726;23;20019;-87
2023/05/29 04:48:53;;;;;;;7.93;5.45;;;;;;;;;;6245442;23;20381;-87
2023/05/29 04:51:22;;;;;;;12.98;5.55;;;;;;;;;;6245812;23;20023;-88
2023/05/29 04:53:53;;;;;;;9.93;5.32;;;;;;;;;;6245545;23;20016;-88
2023/05/29 04:56:21;;;;;;;10.40;5.82;;;;;;;;;;6245457;23;20564;-87
2023/05/29 04:58:49;;;;;;;10.23;5.50;;;;;;;;;;6246215;23;20020;-87
2023/05/29 05:01:17;;;;;;;7.88;4.80;;;;;;;;;;6245398;23;20473;-87
2023/05/29 05:03:45;;;;;;;8.30;4.95;;;;;;;;;;6245628;23;20028;-87
2023/05/29 05:06:12;;;;;;;8.77;5.13;;;;;;;;;;6245062;23;20073;-88
2023/05/29 05:08:40;;;;;;;10.30;5.03;;;;;;;;;;6245180;23;20043;-87
2023/05/29 05:11:07;;;;;;;8.23;4.53;;;;;;;;;;6245299;23;20020;-88
2023/05/29 05:13:34;;;;;;;8.82;4.53;;;;;;;;;;6245338;23;20016;-87
2023/05/29 05:16:02;;;;;;;11.55;5.50;;;;;;;;;;6245492;23;20465;-88
2023/05/29 05:18:30;;;;;;;10.40;5.22;;;;;;;;;;6245352;23;20019;-87
2023/05/29 05:20:57;;;;;;;13.68;4.82;;;;;;;;;;6245304;23;20024;-87
2023/05/29 05:23:25;;;;;;;14.45;4.53;;;;;;;;;;6245104;23;20019;-87
2023/05/29 05:25:52;;;;;;;17.52;4.32;;;;;;;;;;6245091;23;20054;-87
2023/05/29 05:28:20;;;;;;;15.57;4.30;;;;;;;;;;6245335;23;20028;-87
2023/05/29 05:30:47;;;;;;;15.43;4.35;;;;;;;;;;6243547;23;20051;-86
2023/05/29 05:33:15;;;;;;;18.20;4.28;;;;;;;;;;6244998;23;20012;-87
2023/05/29 05:35:42;;;;;;;19.38;4.50;;;;;;;;;;6245496;23;20310;-87
2023/05/29 05:38:09;;;;;;;15.13;4.00;;;;;;;;;;6244935;23;20020;-87
2023/05/29 05:40:37;;;;;;;8.63;4.03;;;;;;;;;;6244983;23;20020;-86
2023/05/29 05:43:04;;;;;;;8.73;3.80;;;;;;;;;;6244913;23;20020;-87
2023/05/29 05:45:31;;;;;;;13.20;3.85;;;;;;;;;;6244849;23;20020;-87
2023/05/29 05:47:58;;;;;;;8.77;3.70;;;;;;;;;;6245004;23;20019;-87
2023/05/29 05:50:26;;;;;;;12.25;3.97;;;;;;;;;;6244885;23;20024;-87
2023/05/29 05:52:53;;;;;;;15.25;3.97;;;;;;;;;;6245010;23;20012;-87
2023/05/29 05:55:21;;;;;;;21.58;4.70;;;;;;;;;;6245035;23;20012;-87
2023/05/29 05:57:48;;;;;;;21.73;5.32;;;;;;;;;;6244889;23;20023;-87
2023/05/29 06:00:16;;;;;;;19.02;4.63;;;;;;;;;;6244931;23;20024;-87
2023/05/29 06:02:44;;;;;;;20.10;4.40;;;;;;;;;;6244977;23;20610;-87
2023/05/29 06:05:12;;;;;;;24.75;5.30;;;;;;;;;;6244719;23;20066;-86
2023/05/29 06:07:40;;;;;;;18.95;4.30;;;;;;;;;;6246043;23;20020;-86
2023/05/29 06:10:07;;;;;;;19.23;5.05;;;;;;;;;;6244734;23;20338;-87
2023/05/29 06:12:34;;;;;;;16.88;4.00;;;;;;;;;;6244561;23;20023;-87
2023/05/29 06:15:04;;;;;;;9.32;3.97;;;;;;;;;;6244420;23;20400;-86
2023/05/29 06:17:31;;;;;;;11.75;4.07;;;;;;;;;;6246696;23;20080;-88
2023/05/29 06:19:59;;;;;;;13.02;3.65;;;;;;;;;;6246802;23;20023;-87
2023/05/29 06:22:27;;;;;;;10.55;3.78;;;;;;;;;;6246529;23;20507;-86
2023/05/29 06:24:54;;;;;;;7.10;3.58;;;;;;;;;;6246787;23;20016;-87
2023/05/29 06:27:25;;;;;;;13.13;4.38;;;;;;;;;;6246738;23;20012;-86
2023/05/29 06:29:52;;;;;;;6.57;3.67;;;;;;;;;;6246999;23;20020;-87
2023/05/29 06:32:20;;;;;;;7.15;3.60;;;;;;;;;;6247219;23;20020;-87
2023/05/29 06:34:53;;;;;;;5.55;3.30;;;;;;;;;;6246636;23;20539;-89
2023/05/29 06:37:20;;;;;;;7.57;3.65;;;;;;;;;;6246583;23;20023;-87
2023/05/29 06:39:48;;;;;;;8.40;3.75;;;;;;;;;;6246235;23;20016;-89
2023/05/29 06:42:15;;;;;;;9.00;3.42;;;;;;;;;;6246454;23;20345;-87
2023/05/29 06:44:42;;;;;;;9.63;3.63;;;;;;;;;;6246237;23;20353;-88
2023/05/29 06:47:11;;;;;;;5.97;3.60;;;;;;;;;;6247136;23;20020;-89
2023/05/29 06:49:38;;;;;;;4.82;3.65;;;;;;;;;;6247057;23;20111;-88
2023/05/29 06:52:07;;;;;;;5.88;3.85;;;;;;;;;;6246636;23;20027;-88
2023/05/29 06:54:34;;;;;;;6.95;4.10;;;;;;;;;;6247161;23;20082;-90
2023/05/29 06:57:01;;;;;;;9.30;3.80;;;;;;;;;;6246710;23;20050;-87
2023/05/29 06:59:37;;;;;;;4.65;3.72;;;;;;;;;;6246541;23;20453;-86
2023/05/29 07:02:05;;;;;;;8.18;3.83;;;;;;;;;;6246707;23;20050;-86
2023/05/29 07:04:33;;;;;;;8.65;3.90;;;;;;;;;;6248244;23;20024;-86
2023/05/29 07:07:00;;;;;;;9.50;4.18;;;;;;;;;;6246083;23;20020;-86
2023/05/29 07:09:27;;;;;;;5.97;3.85;;;;;;;;;;6246254;23;20020;-91
2023/05/29 07:11:55;;;;;;;6.45;3.60;;;;;;;;;;6246369;23;20043;-87
2023/05/29 07:14:22;;;;;;;9.73;3.83;;;;;;;;;;6246205;23;20082;-87
2023/05/29 07:16:49;;;;;;;8.95;3.83;;;;;;;;;;6251629;23;20028;-87
2023/05/29 07:19:17;;;;;;;6.80;3.80;;;;;;;;;;6257063;23;20020;-86
2023/05/29 07:21:53;;;;;;;4.47;3.25;;;;;;;;;;6246364;23;20024;-85
2023/05/29 07:24:21;;;;;;;12.07;3.90;;;;;;;;;;6246141;23;20501;-86
2023/05/29 07:26:48;;;;;;;5.93;3.75;;;;;;;;;;6246029;23;20074;-85
2023/05/29 07:29:17;;;;;;;5.80;3.67;;;;;;;;;;6246329;23;20047;-84
2023/05/29 07:31:45;;;;;;;7.18;3.78;;;;;;;;;;6247288;22;20027;-85
2023/05/29 07:34:12;;;;;;;5.95;3.55;;;;;;;;;;6245680;23;20020;-86
2023/05/29 07:36:56;;;;;;;6.10;3.63;;;;;;;;;;6245905;23;20020;-86
2023/05/29 07:39:23;;;;;;;5.78;3.50;;;;;;;;;;6246188;23;20055;-86
2023/05/29 07:41:51;;;;;;;6.70;3.75;;;;;;;;;;6246171;23;20024;-87
2023/05/29 07:44:18;;;;;;;5.53;3.65;;;;;;;;;;6247571;23;20096;-88
2023/05/29 07:46:46;;;;;;;6.38;3.20;;;;;;;;;;6245859;23;20369;-87
2023/05/29 07:49:14;;;;;;;8.50;3.90;;;;;;;;;;6247892;23;20016;-85
2023/05/29 07:51:42;;;;;;;6.68;3.45;;;;;;;;;;6247421;23;20078;-86
2023/05/29 07:54:09;;;;;;;5.65;3.65;;;;;;;;;;6245868;23;20020;-87
2023/05/29 07:56:37;;;;;;;4.55;2.90;;;;;;;;;;6246067;23;20457;-88
2023/05/29 07:59:05;;;;;;;10.43;3.85;;;;;;;;;;6246431;23;20070;-87
2023/05/29 08:01:33;;;;;;;4.30;2.90;;;;;;;;;;6245681;23;20020;-87
2023/05/29 08:04:00;;;;;;;6.28;2.97;;;;;;;;;;6245150;23;20024;-86
2023/05/29 08:06:28;;;;;;;5.05;3.20;;;;;;;;;;6246481;23;20159;-85
2023/05/29 08:08:56;;;;;;;2.95;2.63;;;;;;;;;;6246308;23;20082;-90
2023/05/29 08:11:23;;;;;;;4.70;3.13;;;;;;;;;;6245534;23;20016;-89
2023/05/29 08:13:50;;;;;;;4.50;3.47;;;;;;;;;;6245324;23;20023;-89
2023/05/29 08:16:18;;;;;;;5.85;3.22;;;;;;;;;;6245261;23;20023;-87
2023/05/29 08:18:45;;;;;;;6.07;3.30;;;;;;;;;;6245402;23;20023;-89
2023/05/29 08:21:13;;;;;;;5.72;3.88;;;;;;;;;;6245398;23;20016;-88
2023/05/29 08:23:40;;;;;;;8.50;3.90;;;;;;;;;;6245193;23;20078;-86
2023/05/29 08:26:08;;;;;;;6.22;3.38;;;;;;;;;;6245016;23;20370;-86
2023/05/29 08:28:35;;;;;;;5.40;3.30;;;;;;;;;;6245365;23;20017;-88
2023/05/29 08:31:02;;;;;;;7.72;3.50;;;;;;;;;;6245385;23;20024;-89
2023/05/29 08:33:30;;;;;;;7.20;4.75;;;;;;;;;;6245472;23;20024;-90
2023/05/29 08:35:58;;;;;;;6.00;3.35;;;;;;;;;;6245396;23;20350;-88
2023/05/29 08:38:28;;;;;;;6.60;3.40;;;;;;;;;;6245758;23;20020;-88
2023/05/29 08:40:58;;;;;;;5.28;3.20;;;;;;;;;;6244678;23;20333;-86
2023/05/29 08:43:26;;;;;;;6.28;2.92;;;;;;;;;;6245651;23;20021;-85
2023/05/29 08:45:54;;;;;;;8.23;3.78;;;;;;;;;;6246081;23;20078;-88
2023/05/29 08:48:25;;;;;;;4.57;3.28;;;;;;;;;;6246471;23;20036;-88
2023/05/29 08:50:54;;;;;;;6.82;3.30;;;;;;;;;;6245035;23;20038;-88
2023/05/29 08:53:23;;;;;;;4.35;3.47;;;;;;;;;;6245009;23;20023;-89
2023/05/29 08:55:52;;;;;;;4.68;3.40;;;;;;;;;;6245475;23;20020;-89
2023/05/29 08:58:23;;;;;;;4.70;2.80;;;;;;;;;;6245068;23;20450;-89
2023/05/29 09:00:51;;;;;;;7.78;3.42;;;;;;;;;;6245208;23;20350;-86
2023/05/29 09:03:20;;;;;;;5.50;2.72;;;;;;;;;;6244999;23;20024;-89
2023/05/29 09:05:48;;;;;;;8.20;5.32;;;;;;;;;;6244641;23;20682;-88
2023/05/29 09:08:16;;;;;;;4.65;3.08;;;;;;;;;;6245567;23;20024;-87
2023/05/29 09:10:45;;;;;;;6.63;3.17;;;;;;;;;;6244791;23;20020;-88
2023/05/29 09:13:13;;;;;;;5.85;3.03;;;;;;;;;;6244912;23;20043;-90
2023/05/29 09:15:45;;;;;;;4.30;3.17;;;;;;;;;;6245076;23;20020;-87
2023/05/29 09:18:12;;;;;;;12.60;3.15;;;;;;;;;;6244856;23;20020;-87
2023/05/29 09:20:40;;;;;;;7.28;3.28;;;;;;;;;;6244683;23;20035;-86
2023/05/29 09:23:08;;;;;;;8.20;3.22;;;;;;;;;;6245029;23;20055;-87
2023/05/29 09:25:39;;;;;;;4.22;2.80;;;;;;;;;;6246046;23;20028;-90
2023/05/29 09:28:08;;;;;;;5.90;3.35;;;;;;;;;;6245295;23;20103;-88
2023/05/29 09:30:42;;;;;;;4.72;3.20;;;;;;;;;;6244462;23;20020;-87
2023/05/29 09:33:10;;;;;;;4.18;3.05;;;;;;;;;;6245038;23;20023;-87
2023/05/29 09:35:41;;;;;;;4.95;2.47;;;;;;;;;;6244481;23;20020;-87
2023/05/29 09:38:09;;;;;;;7.13;2.70;;;;;;;;;;6244568;23;20019;-89
2023/05/29 09:40:40;;;;;;;3.15;2.85;;;;;;;;;;6245206;23;20103;-88
2023/05/29 09:43:16;;;;;;;3.38;2.40;;;;;;;;;;6244879;23;20042;-88
2023/05/29 09:45:45;;;;;;;4.97;2.95;;;;;;;;;;6245758;23;20020;-89
2023/05/29 09:48:16;;;;;;;5.07;2.85;;;;;;;;;;6245058;23;20020;-87
2023/05/29 09:50:47;;;;;;;3.63;2.25;;;;;;;;;;6244204;23;20028;-87
2023/05/29 09:53:25;;;;;;;6.68;2.85;;;;;;;;;;6245815;23;20019;-88
2023/05/29 09:55:54;;;;;;;5.20;3.00;;;;;;;;;;6244800;23;20475;-88
2023/05/29 09:58:25;;;;;;;5.03;3.53;;;;;;;;;;6245781;23;20024;-88
2023/05/29 10:00:53;;;;;;;14.10;3.80;;;;;;;;;;6250949;23;20072;-87
2023/05/29 10:03:24;;;;;;;8.70;3.08;;;;;;;;;;6246286;23;20066;-90
2023/05/29 10:05:52;;;;;;;4.40;2.60;;;;;;;;;;6247037;23;20020;-90
2023/05/29 10:08:20;;;;;;;2.60;2.30;;;;;;;;;;6245230;23;20020;-87
2023/05/29 10:10:56;;;;;;;3.83;2.40;;;;;;;;;;6244687;23;20026;-87
2023/05/29 10:13:26;;;;;;;2.20;2.00;;;;;;;;;;6245233;23;20012;-89
2023/05/29 10:15:54;;;;;;;3.80;2.42;;;;;;;;;;6245357;23;20020;-88
2023/05/29 10:18:24;;;;;;;4.15;2.70;;;;;;;;;;6245134;23;20022;-89
2023/05/29 10:20:55;;;;;;;3.78;2.50;;;;;;;;;;6244944;23;20472;-87
2023/05/29 10:23:25;;;;;;;3.70;1.92;;;;;;;;;;6245113;23;20020;-91
2023/05/29 10:25:53;;;;;;;2.78;2.28;;;;;;;;;;6244686;23;20449;-89
2023/05/29 10:28:23;;;;;;;6.05;2.20;;;;;;;;;;6244734;23;20022;-90
2023/05/29 10:30:50;;;;;;;2.20;2.00;;;;;;;;;;6244876;23;20398;-87
2023/05/29 10:33:33;;;;;;;3.40;2.20;;;;;;;;;;6246269;23;20051;-86
2023/05/29 10:36:05;;;;;;;4.40;2.53;;;;;;;;;;6244749;23;20016;-90
2023/05/29 10:38:33;;;;;;;5.70;2.70;;;;;;;;;;6244556;23;20042;-87
2023/05/29 10:41:18;;;;;;;3.78;2.10;;;;;;;;;;6245655;23;20020;-88
2023/05/29 10:43:46;;;;;;;8.63;2.78;;;;;;;;;;6244308;23;20380;-86
2023/05/29 10:46:13;;;;;;;3.38;2.58;;;;;;;;;;6244264;23;20020;-90
2023/05/29 10:48:41;;;;;;;2.97;2.33;;;;;;;;;;6244109;23;20018;-87
2023/05/29 10:51:09;;;;;;;4.28;2.50;;;;;;;;;;6245874;23;20020;-88
2023/05/29 10:53:40;;;;;;;5.43;2.67;;;;;;;;;;6243985;23;20472;-86
2023/05/29 10:56:16;;;;;;;3.92;2.30;;;;;;;;;;6244880;23;20019;-87
2023/05/29 10:58:43;;;;;;;2.60;2.40;;;;;;;;;;6244999;23;20056;-91
2023/05/29 11:01:10;;;;;;;4.78;2.53;;;;;;;;;;6244177;23;20017;-86
2023/05/29 11:03:38;;;;;;;4.75;2.60;;;;;;;;;;6245125;23;20020;-89
2023/05/29 11:06:07;;;;;;;3.08;2.55;;;;;;;;;;6246076;23;20012;-86
2023/05/29 11:08:35;;;;;;;4.40;2.33;;;;;;;;;;6246482;23;20345;-87
2023/05/29 11:11:04;;;;;;;2.78;2.10;;;;;;;;;;6246283;23;20468;-88
2023/05/29 11:13:35;;;;;;;4.93;2.53;;;;;;;;;;6249111;23;20070;-87
2023/05/29 11:16:06;;;;;;;5.82;2.47;;;;;;;;;;6246077;23;20024;-88
2023/05/29 11:18:39;;;;;;;4.82;2.75;;;;;;;;;;6246094;23;20349;-88
2023/05/29 11:21:13;;;;;;;6.78;3.00;;;;;;;;;;6246137;23;20020;-89
2023/05/29 11:23:43;;;;;;;4.85;2.63;;;;;;;;;;6245968;23;20027;-87
2023/05/29 11:26:10;;;;;;;6.68;2.47;;;;;;;;;;6245758;23;20016;-88
2023/05/29 11:28:38;;;;;;;2.40;2.20;;;;;;;;;;6245817;23;20023;-87
2023/05/29 11:31:09;;;;;;;4.43;2.65;;;;;;;;;;6246379;23;20082;-88
2023/05/29 11:33:43;;;;;;;3.95;2.55;;;;;;;;;;6245016;23;20016;-88
2023/05/29 11:36:10;;;;;;;6.00;2.53;;;;;;;;;;6245781;23;20020;-88
2023/05/29 11:38:38;;;;;;;6.25;2.72;;;;;;;;;;6245893;23;20024;-87
2023/05/29 11:41:05;;;;;;;5.60;2.83;;;;;;;;;;6245833;23;20016;-87
2023/05/29 11:43:33;;;;;;;5.75;2.70;;;;;;;;;;6245866;23;20046;-86
2023/05/29 11:46:00;;;;;;;5.18;2.50;;;;;;;;;;6245612;23;20012;-85
2023/05/29 11:48:27;;;;;;;4.75;2.80;;;;;;;;;;6245957;23;20511;-88
2023/05/29 11:50:54;;;;;;;5.75;2.60;;;;;;;;;;6245917;23;20012;-86
2023/05/29 11:53:22;;;;;;;3.83;2.80;;;;;;;;;;6245491;23;20024;-86
2023/05/29 11:55:49;;;;;;;4.90;2.60;;;;;;;;;;6245985;23;20396;-87
2023/05/29 11:58:21;;;;;;;4.05;2.28;;;;;;;;;;6245527;23;20520;-86
2023/05/29 12:00:50;;;;;;;4.03;2.40;;;;;;;;;;6246802;23;20495;-88
2023/05/29 12:03:17;;;;;;;4.95;2.95;;;;;;;;;;6246100;23;20086;-86
2023/05/29 12:05:52;;;;;;;3.42;2.40;;;;;;;;;;6245594;23;20070;-86
2023/05/29 12:08:24;;;;;;;5.32;2.38;;;;;;;;;;6245406;23;20073;-87
2023/05/29 12:10:52;;;;;;;2.85;2.50;;;;;;;;;;6245569;23;20023;-88
2023/05/29 12:13:20;;;;;;;5.85;2.50;;;;;;;;;;6245271;23;20351;-86
2023/05/29 12:15:49;;;;;;;3.25;2.50;;;;;;;;;;6245432;23;20047;-86
2023/05/29 12:18:16;;;;;;;3.40;2.75;;;;;;;;;;6245485;23;20388;-88
2023/05/29 12:20:43;;;;;;;4.57;2.83;;;;;;;;;;6246681;23;20028;-86
2023/05/29 12:23:14;;;;;;;4.88;2.65;;;;;;;;;;6247715;23;20020;-87
2023/05/29 12:25:43;;;;;;;2.95;2.58;;;;;;;;;;6245328;23;20017;-89
2023/05/29 12:28:17;;;;;;;4.97;2.53;;;;;;;;;;6245500;23;20043;-86
2023/05/29 12:30:49;;;;;;;7.68;2.97;;;;;;;;;;6245859;23;20415;-88
2023/05/29 12:33:30;;;;;;;2.75;2.55;;;;;;;;;;6246325;23;20024;-86
2023/05/29 12:36:08;;;;;;;5.78;2.72;;;;;;;;;;6249426;23;20024;-89
2023/05/29 12:38:52;;;;;;;6.03;2.83;;;;;;;;;;6251288;23;20028;-84
2023/05/29 12:41:23;;;;;;;5.50;2.70;;;;;;;;;;6246715;23;20017;-90
2023/05/29 12:43:53;;;;;;;5.53;2.72;;;;;;;;;;6246113;23;20020;-87
2023/05/29 12:46:20;;;;;;;3.10;2.30;;;;;;;;;;6245095;23;20377;-87
2023/05/29 12:48:47;;;;;;;6.97;2.38;;;;;;;;;;6245064;23;20099;-87
2023/05/29 12:51:14;;;;;;;6.60;2.60;;;;;;;;;;6245360;23;20042;-87
2023/05/29 12:53:42;;;;;;;4.38;2.90;;;;;;;;;;6244863;23;20020;-87
2023/05/29 12:56:09;;;;;;;6.00;2.75;;;;;;;;;;6245153;23;20566;-88
2023/05/29 12:58:36;;;;;;;3.60;2.58;;;;;;;;;;6245446;23;20020;-87
2023/05/29 13:01:04;;;;;;;4.30;2.63;;;;;;;;;;6245609;23;20016;-83
2023/05/29 13:03:31;;;;;;;5.20;2.83;;;;;;;;;;6245295;23;20020;-91
2023/05/29 13:05:58;;;;;;;6.55;3.20;;;;;;;;;;6245451;23;20341;-87
2023/05/29 13:08:26;;;;;;;4.00;2.75;;;;;;;;;;6244944;23;20024;-87
2023/05/29 13:10:54;;;;;;;4.15;2.85;;;;;;;;;;6245318;23;20074;-86
2023/05/29 13:13:22;;;;;;;3.97;2.83;;;;;;;;;;6244800;23;20024;-87
2023/05/29 13:15:49;;;;;;;5.80;2.70;;;;;;;;;;6244747;23;20027;-88
2023/05/29 13:18:16;;;;;;;5.68;3.08;;;;;;;;;;6244769;23;20016;-88
2023/05/29 13:20:43;;;;;;;3.65;2.55;;;;;;;;;;6244995;23;20069;-89
2023/05/29 13:23:11;;;;;;;7.18;2.90;;;;;;;;;;6246109;23;20445;-93
2023/05/29 13:25:38;;;;;;;6.57;3.17;;;;;;;;;;6244815;23;20070;-83
2023/05/29 13:28:05;;;;;;;5.53;3.25;;;;;;;;;;6244895;23;20024;-88
2023/05/29 13:30:33;;;;;;;6.60;2.70;;;;;;;;;;6244897;23;20024;-91
2023/05/29 13:33:00;;;;;;;3.75;2.83;;;;;;;;;;6244987;23;20020;-89
2023/05/29 13:35:27;;;;;;;4.35;2.97;;;;;;;;;;6244688;23;20017;-90
2023/05/29 13:37:55;;;;;;;5.05;2.88;;;;;;;;;;6245241;23;20047;-87
2023/05/29 13:40:22;;;;;;;6.65;3.00;;;;;;;;;;6245312;23;20024;-89
2023/05/29 13:42:49;;;;;;;2.97;2.67;;;;;;;;;;6246658;23;20020;-88
2023/05/29 13:45:16;;;;;;;4.82;2.53;;;;;;;;;;6244902;23;20016;-90
2023/05/29 13:47:44;;;;;;;5.72;3.40;;;;;;;;;;6245185;23;20024;-88
2023/05/29 13:50:11;;;;;;;2.83;2.47;;;;;;;;;;6244910;23;20012;-89
2023/05/29 13:52:39;;;;;;;3.30;2.47;;;;;;;;;;6244516;23;20020;-87
2023/05/29 13:55:08;;;;;;;5.68;2.63;;;;;;;;;;6244190;23;20016;-89
2023/05/29 13:57:36;;;;;;;7.35;3.00;;;;;;;;;;6244700;23;20016;-88
2023/05/29 14:00:05;;;;;;;5.53;3.05;;;;;;;;;;6244749;23;20051;-86
2023/05/29 14:02:35;;;;;;;4.85;2.72;;;;;;;;;;6245639;23;20027;-87
2023/05/29 14:05:03;;;;;;;9.50;2.92;;;;;;;;;;6245176;23;20027;-90
2023/05/29 14:07:30;;;;;;;4.10;2.65;;;;;;;;;;6244879;23;20024;-87
2023/05/29 14:09:57;;;;;;;4.45;2.90;;;;;;;;;;6246664;23;20314;-93
2023/05/29 14:12:25;;;;;;;4.75;2.67;;;;;;;;;;6244933;23;20012;-86
2023/05/29 14:14:52;;;;;;;4.05;2.70;;;;;;;;;;6244687;23;20031;-86
2023/05/29 14:17:19;;;;;;;4.38;2.60;;;;;;;;;;6244286;23;20244;-89
2023/05/29 14:19:47;;;;;;;4.85;2.85;;;;;;;;;;6244920;23;20095;-85
2023/05/29 14:22:14;;;;;;;4.55;3.15;;;;;;;;;;6244417;23;20012;-87
2023/05/29 14:24:42;;;;;;;3.50;2.63;;;;;;;;;;6243865;23;20024;-86
2023/05/29 14:27:09;;;;;;;6.53;2.75;;;;;;;;;;6244808;23;20016;-87
2023/05/29 14:29:36;;;;;;;6.40;3.10;;;;;;;;;;6244679;23;20172;-87
2023/05/29 14:32:04;;;;;;;4.07;2.50;;;;;;;;;;6243922;23;20115;-91
2023/05/29 14:34:31;;;;;;;7.20;3.00;;;;;;;;;;6244568;23;20020;-92
2023/05/29 14:36:59;;;;;;;4.60;2.88;;;;;;;;;;6244306;23;20020;-86
2023/05/29 14:39:26;;;;;;;2.92;2.65;;;;;;;;;;6246189;23;20392;-87
2023/05/29 14:41:53;;;;;;;3.97;2.88;;;;;;;;;;6246269;23;20016;-87
2023/05/29 14:44:20;;;;;;;4.78;2.65;;;;;;;;;;6246474;23;20040;-92
2023/05/29 14:46:48;;;;;;;4.50;2.65;;;;;;;;;;6246075;23;20396;-87
2023/05/29 14:49:15;;;;;;;5.07;3.30;;;;;;;;;;6245951;23;20022;-87